Time;durP1;ratioP1;P1;durP2;ratioP2;P2;SDS_P1;SDS_P2;PMS_P1;PMS_P2;Temp;Humidity;BMP_temperature;BMP_pressure;BME280_temperature;BME280_humidity;BME280_pressure;Samples;Min_cycle;Max_cycle;Signal;HPM_P1;HPM_P2
2024/01/04 00:01:35;;;;;;;0.47;0.47;;;;;;;;;;5039351;28;20240;-82
2024/01/04 00:04:02;;;;;;;0.80;0.80;;;;;;;;;;5039225;28;20210;-84
2024/01/04 00:06:29;;;;;;;1.00;0.60;;;;;;;;;;5038672;28;20226;-82
2024/01/04 00:08:58;;;;;;;1.23;0.70;;;;;;;;;;5037456;28;20202;-82
2024/01/04 00:11:26;;;;;;;0.50;0.50;;;;;;;;;;5037676;28;20305;-83
2024/01/04 00:13:53;;;;;;;0.45;0.45;;;;;;;;;;5038184;28;20297;-83
2024/01/04 00:16:21;;;;;;;1.17;0.80;;;;;;;;;;5038521;28;20247;-83
2024/01/04 00:18:48;;;;;;;0.50;0.50;;;;;;;;;;5038866;28;20240;-83
2024/01/04 00:21:16;;;;;;;0.38;0.38;;;;;;;;;;5038759;28;20646;-82
2024/01/04 00:23:43;;;;;;;1.58;0.70;;;;;;;;;;5035136;28;21030;-82
2024/01/04 00:26:12;;;;;;;1.58;1.10;;;;;;;;;;5037979;28;20221;-80
2024/01/04 00:28:39;;;;;;;0.82;0.50;;;;;;;;;;5037254;28;20213;-82
2024/01/04 00:31:07;;;;;;;1.27;0.77;;;;;;;;;;5037480;28;20210;-82
2024/01/04 00:33:34;;;;;;;0.60;0.60;;;;;;;;;;5049984;28;20290;-82
2024/01/04 00:36:02;;;;;;;0.77;0.63;;;;;;;;;;5043328;28;20305;-81
2024/01/04 00:38:29;;;;;;;0.30;0.30;;;;;;;;;;5037885;28;20767;-81
2024/01/04 00:40:56;;;;;;;0.95;0.47;;;;;;;;;;5037976;28;20302;-81
2024/01/04 00:43:25;;;;;;;0.50;0.50;;;;;;;;;;5038550;28;20305;-81
2024/01/04 00:45:53;;;;;;;1.17;0.57;;;;;;;;;;5038200;28;20306;-81
2024/01/04 00:48:20;;;;;;;0.57;0.57;;;;;;;;;;5037907;28;20226;-81
2024/01/04 00:50:48;;;;;;;0.50;0.50;;;;;;;;;;5038240;28;20241;-82
2024/01/04 00:53:15;;;;;;;0.60;0.60;;;;;;;;;;5038486;28;20206;-84
2024/01/04 00:55:43;;;;;;;0.40;0.40;;;;;;;;;;5038259;28;20214;-83
2024/01/04 00:58:10;;;;;;;0.40;0.40;;;;;;;;;;5037539;28;20321;-83
2024/01/04 01:00:40;;;;;;;1.63;0.80;;;;;;;;;;5037785;28;20293;-82
2024/01/04 01:03:08;;;;;;;1.73;0.68;;;;;;;;;;5037502;28;20218;-81
2024/01/04 01:05:35;;;;;;;0.30;0.30;;;;;;;;;;5037384;28;20210;-82
2024/01/04 01:08:03;;;;;;;0.90;0.50;;;;;;;;;;5037232;28;20312;-82
2024/01/04 01:10:32;;;;;;;0.30;0.30;;;;;;;;;;5037138;28;20212;-82
2024/01/04 01:12:59;;;;;;;0.15;0.15;;;;;;;;;;5038147;28;20576;-82
2024/01/04 01:15:27;;;;;;;0.38;0.38;;;;;;;;;;5037282;28;20206;-81
2024/01/04 01:17:56;;;;;;;0.50;0.50;;;;;;;;;;5037921;28;20281;-83
2024/01/04 01:20:23;;;;;;;0.35;0.30;;;;;;;;;;5037971;28;20236;-84
2024/01/04 01:22:51;;;;;;;0.25;0.25;;;;;;;;;;5037733;28;20737;-83
2024/01/04 01:25:18;;;;;;;0.40;0.40;;;;;;;;;;5037269;28;20296;-82
2024/01/04 01:27:46;;;;;;;0.20;0.20;;;;;;;;;;5040225;28;20234;-82
2024/01/04 01:30:13;;;;;;;1.17;0.30;;;;;;;;;;5051095;28;20205;-82
2024/01/04 01:32:41;;;;;;;0.45;0.30;;;;;;;;;;5040963;28;20270;-82
2024/01/04 01:35:10;;;;;;;0.45;0.25;;;;;;;;;;5042244;28;20663;-83
2024/01/04 01:37:38;;;;;;;0.30;0.30;;;;;;;;;;5037887;28;20237;-82
2024/01/04 01:40:07;;;;;;;0.28;0.28;;;;;;;;;;5037138;28;20745;-82
2024/01/04 01:42:35;;;;;;;0.40;0.40;;;;;;;;;;5037601;28;20257;-83
2024/01/04 01:45:02;;;;;;;0.20;0.20;;;;;;;;;;5036847;28;20739;-82
2024/01/04 01:47:30;;;;;;;0.30;0.30;;;;;;;;;;5036916;28;20230;-82
2024/01/04 01:49:58;;;;;;;0.30;0.30;;;;;;;;;;5036787;28;20206;-82
2024/01/04 01:52:27;;;;;;;0.20;0.20;;;;;;;;;;5037074;28;20287;-81
2024/01/04 01:54:54;;;;;;;0.35;0.35;;;;;;;;;;5037377;28;20277;-82
2024/01/04 01:57:22;;;;;;;0.30;0.30;;;;;;;;;;5036375;28;20662;-83
2024/01/04 01:59:49;;;;;;;0.20;0.20;;;;;;;;;;5036423;28;20262;-82
2024/01/04 02:02:17;;;;;;;0.20;0.20;;;;;;;;;;5037139;28;20206;-82
2024/01/04 02:04:44;;;;;;;0.40;0.40;;;;;;;;;;5036503;28;20301;-83
2024/01/04 02:07:12;;;;;;;0.20;0.20;;;;;;;;;;5036646;28;20241;-83
2024/01/04 02:09:41;;;;;;;0.40;0.40;;;;;;;;;;5037086;28;20679;-83
2024/01/04 02:12:13;;;;;;;0.40;0.40;;;;;;;;;;5036466;28;20252;-83
2024/01/04 02:14:41;;;;;;;0.80;0.30;;;;;;;;;;5037041;28;20210;-82
2024/01/04 02:17:08;;;;;;;0.52;0.28;;;;;;;;;;5037366;28;20765;-83
2024/01/04 02:19:36;;;;;;;0.20;0.20;;;;;;;;;;5037375;28;20667;-82
2024/01/04 02:22:03;;;;;;;0.30;0.30;;;;;;;;;;5036735;28;20744;-82
2024/01/04 02:24:32;;;;;;;0.30;0.30;;;;;;;;;;5036568;28;20302;-82
2024/01/04 02:27:00;;;;;;;0.10;0.10;;;;;;;;;;5036890;28;20317;-83
2024/01/04 02:29:27;;;;;;;0.40;0.40;;;;;;;;;;5046083;28;20296;-82
2024/01/04 02:31:54;;;;;;;0.20;0.20;;;;;;;;;;5043565;28;20742;-83
2024/01/04 02:34:22;;;;;;;0.25;0.25;;;;;;;;;;5050222;28;20251;-82
2024/01/04 02:36:49;;;;;;;0.40;0.40;;;;;;;;;;5036122;28;20230;-82
2024/01/04 02:39:17;;;;;;;0.40;0.40;;;;;;;;;;5035493;28;20297;-82
2024/01/04 02:41:46;;;;;;;0.40;0.40;;;;;;;;;;5032762;28;20217;-82
2024/01/04 02:44:13;;;;;;;0.30;0.30;;;;;;;;;;5036414;28;20213;-83
2024/01/04 02:46:41;;;;;;;0.68;0.40;;;;;;;;;;5036093;28;20240;-82
2024/01/04 02:49:08;;;;;;;0.40;0.40;;;;;;;;;;5031428;28;20216;-82
2024/01/04 02:51:36;;;;;;;0.30;0.30;;;;;;;;;;5035544;28;20217;-81
2024/01/04 02:54:03;;;;;;;0.50;0.50;;;;;;;;;;5035737;28;20206;-83
2024/01/04 02:56:31;;;;;;;0.40;0.40;;;;;;;;;;5036193;28;20226;-82
2024/01/04 02:59:01;;;;;;;0.30;0.30;;;;;;;;;;5036044;28;20210;-82
2024/01/04 03:01:28;;;;;;;0.30;0.30;;;;;;;;;;5035720;28;20236;-82
2024/01/04 03:03:56;;;;;;;0.30;0.30;;;;;;;;;;5036238;28;20688;-82
2024/01/04 03:06:24;;;;;;;0.20;0.20;;;;;;;;;;5036237;28;20671;-83
2024/01/04 03:08:51;;;;;;;0.32;0.32;;;;;;;;;;5036656;28;20301;-83
2024/01/04 03:11:19;;;;;;;0.20;0.20;;;;;;;;;;5036237;28;20305;-82
2024/01/04 03:13:47;;;;;;;0.28;0.28;;;;;;;;;;5036228;28;20232;-82
2024/01/04 03:16:16;;;;;;;0.30;0.30;;;;;;;;;;5037364;28;20577;-82
2024/01/04 03:18:43;;;;;;;0.20;0.20;;;;;;;;;;5040173;28;20292;-82
2024/01/04 03:21:11;;;;;;;0.30;0.30;;;;;;;;;;5040453;28;20836;-82
2024/01/04 03:23:39;;;;;;;0.35;0.35;;;;;;;;;;5040011;28;20216;-83
2024/01/04 03:26:06;;;;;;;0.50;0.50;;;;;;;;;;5042719;28;20563;-82
2024/01/04 03:28:33;;;;;;;0.32;0.32;;;;;;;;;;5046405;28;20321;-82
2024/01/04 03:31:01;;;;;;;0.20;0.20;;;;;;;;;;5052972;28;20282;-82
2024/01/04 03:33:30;;;;;;;0.30;0.30;;;;;;;;;;5052363;28;20673;-83
2024/01/04 03:35:58;;;;;;;5.47;1.58;;;;;;;;;;5049694;28;20217;-83
2024/01/04 03:38:25;;;;;;;0.40;0.40;;;;;;;;;;5039370;28;20282;-83
2024/01/04 03:40:53;;;;;;;0.40;0.40;;;;;;;;;;5039381;28;20237;-83
2024/01/04 03:43:20;;;;;;;0.40;0.40;;;;;;;;;;5038742;28;20296;-82
2024/01/04 03:45:48;;;;;;;0.30;0.30;;;;;;;;;;5038789;28;20264;-83
2024/01/04 03:48:15;;;;;;;0.20;0.20;;;;;;;;;;5039107;28;20671;-84
2024/01/04 03:50:44;;;;;;;0.25;0.25;;;;;;;;;;5039651;28;20224;-84
2024/01/04 03:53:11;;;;;;;0.73;0.30;;;;;;;;;;5039815;28;20210;-84
2024/01/04 03:55:39;;;;;;;0.40;0.40;;;;;;;;;;5038750;28;20214;-84
2024/01/04 03:58:06;;;;;;;0.40;0.40;;;;;;;;;;5038655;28;20230;-84
2024/01/04 04:00:34;;;;;;;0.22;0.22;;;;;;;;;;5038730;28;20269;-84
2024/01/04 04:03:01;;;;;;;0.35;0.35;;;;;;;;;;5038733;28;20297;-83
2024/01/04 04:05:29;;;;;;;0.43;0.43;;;;;;;;;;5038313;28;20302;-84
2024/01/04 04:07:57;;;;;;;0.20;0.20;;;;;;;;;;5038910;28;20674;-82
2024/01/04 04:10:25;;;;;;;0.30;0.30;;;;;;;;;;5038933;28;20743;-82
2024/01/04 04:12:52;;;;;;;0.30;0.30;;;;;;;;;;5038965;28;20225;-83
2024/01/04 04:15:20;;;;;;;0.25;0.25;;;;;;;;;;5038743;28;20234;-83
2024/01/04 04:17:47;;;;;;;0.30;0.30;;;;;;;;;;5039608;28;20277;-83
2024/01/04 04:20:16;;;;;;;0.50;0.50;;;;;;;;;;5037842;28;20297;-83
2024/01/04 04:22:43;;;;;;;0.20;0.20;;;;;;;;;;5039264;28;20206;-82
2024/01/04 04:25:13;;;;;;;0.47;0.30;;;;;;;;;;5039500;28;20246;-82
2024/01/04 04:27:40;;;;;;;0.50;0.50;;;;;;;;;;5043586;28;20710;-83
2024/01/04 04:30:08;;;;;;;0.47;0.47;;;;;;;;;;5038683;28;20210;-82
2024/01/04 04:32:36;;;;;;;0.50;0.50;;;;;;;;;;5048813;28;20209;-83
2024/01/04 04:35:04;;;;;;;0.50;0.50;;;;;;;;;;5044601;28;20250;-83
2024/01/04 04:37:32;;;;;;;0.60;0.60;;;;;;;;;;5038503;28;20782;-83
2024/01/04 04:39:59;;;;;;;0.95;0.90;;;;;;;;;;5037674;28;20206;-84
2024/01/04 04:42:28;;;;;;;0.65;0.65;;;;;;;;;;5037748;28;20236;-84
2024/01/04 04:44:55;;;;;;;0.57;0.57;;;;;;;;;;5038442;28;20206;-83
2024/01/04 04:47:23;;;;;;;0.88;0.70;;;;;;;;;;5035254;28;20634;-84
2024/01/04 04:49:50;;;;;;;0.88;0.82;;;;;;;;;;5027947;28;20221;-83
2024/01/04 04:52:18;;;;;;;0.60;0.60;;;;;;;;;;5030641;28;20202;-84
2024/01/04 04:54:45;;;;;;;0.68;0.68;;;;;;;;;;5031058;28;20216;-84
2024/01/04 04:57:12;;;;;;;0.90;0.90;;;;;;;;;;5029794;28;20299;-83
2024/01/04 04:59:41;;;;;;;0.70;0.70;;;;;;;;;;5037528;28;20206;-82
2024/01/04 05:02:10;;;;;;;0.95;0.80;;;;;;;;;;5037262;28;20226;-82
2024/01/04 05:04:37;;;;;;;3.17;1.17;;;;;;;;;;5037444;28;20205;-82
2024/01/04 05:07:05;;;;;;;0.82;0.82;;;;;;;;;;5037696;28;20223;-83
2024/01/04 05:09:32;;;;;;;0.60;0.60;;;;;;;;;;5036916;28;20209;-82
2024/01/04 05:12:00;;;;;;;1.00;0.90;;;;;;;;;;5037918;28;20690;-82
2024/01/04 05:14:27;;;;;;;0.60;0.60;;;;;;;;;;5038073;28;20213;-82
2024/01/04 05:16:56;;;;;;;0.73;0.63;;;;;;;;;;5036840;28;20301;-82
2024/01/04 05:19:23;;;;;;;2.13;1.42;;;;;;;;;;5037061;28;20293;-82
2024/01/04 05:21:51;;;;;;;0.82;0.82;;;;;;;;;;5037666;28;20228;-82
2024/01/04 05:24:18;;;;;;;0.70;0.70;;;;;;;;;;5036886;28;20221;-82
2024/01/04 05:26:46;;;;;;;3.38;1.00;;;;;;;;;;5037850;28;20261;-82
2024/01/04 05:29:13;;;;;;;0.63;0.63;;;;;;;;;;5038566;28;20219;-83
2024/01/04 05:31:41;;;;;;;0.60;0.60;;;;;;;;;;5040802;28;20266;-82
2024/01/04 05:34:09;;;;;;;0.70;0.70;;;;;;;;;;5028416;28;20238;-82
2024/01/04 05:36:37;;;;;;;0.98;0.93;;;;;;;;;;5034867;28;20800;-82
2024/01/04 05:39:04;;;;;;;1.13;0.80;;;;;;;;;;5035491;28;20294;-82
2024/01/04 05:41:32;;;;;;;0.90;0.90;;;;;;;;;;5036749;28;20232;-82
2024/01/04 05:43:59;;;;;;;0.88;0.88;;;;;;;;;;5035937;28;20581;-82
2024/01/04 05:46:27;;;;;;;0.75;0.75;;;;;;;;;;5035456;28;20333;-82
2024/01/04 05:48:54;;;;;;;0.95;0.80;;;;;;;;;;5036621;28;20206;-82
2024/01/04 05:51:23;;;;;;;0.70;0.70;;;;;;;;;;5036489;28;20293;-82
2024/01/04 05:53:51;;;;;;;0.57;0.57;;;;;;;;;;5036708;28;20205;-83
2024/01/04 05:56:18;;;;;;;0.63;0.63;;;;;;;;;;5036528;28;20202;-82
2024/01/04 05:58:46;;;;;;;1.23;1.02;;;;;;;;;;5033371;28;20198;-82
2024/01/04 06:01:13;;;;;;;0.80;0.80;;;;;;;;;;5036679;28;20210;-82
2024/01/04 06:03:41;;;;;;;1.00;1.00;;;;;;;;;;5035810;28;20214;-82
2024/01/04 06:06:10;;;;;;;1.08;0.80;;;;;;;;;;5032226;28;20273;-81
2024/01/04 06:08:39;;;;;;;0.65;0.65;;;;;;;;;;5032874;28;20206;-83
2024/01/04 06:11:07;;;;;;;2.00;0.80;;;;;;;;;;5036647;28;20298;-83
2024/01/04 06:13:34;;;;;;;1.35;1.25;;;;;;;;;;5036463;28;20203;-83
2024/01/04 06:16:07;;;;;;;1.02;0.80;;;;;;;;;;5036609;28;20230;-82
2024/01/04 06:18:34;;;;;;;0.80;0.80;;;;;;;;;;5036466;28;20204;-82
2024/01/04 06:21:02;;;;;;;0.95;0.88;;;;;;;;;;5032064;28;20230;-82
2024/01/04 06:23:30;;;;;;;1.30;0.70;;;;;;;;;;5035819;28;20333;-82
2024/01/04 06:25:59;;;;;;;2.50;0.98;;;;;;;;;;5036507;28;20298;-83
2024/01/04 06:28:27;;;;;;;0.80;0.80;;;;;;;;;;5035475;28;20206;-81
2024/01/04 06:30:54;;;;;;;1.42;1.00;;;;;;;;;;5036475;28;20653;-83
2024/01/04 06:33:22;;;;;;;0.70;0.70;;;;;;;;;;5035920;28;20293;-83
2024/01/04 06:35:49;;;;;;;0.75;0.75;;;;;;;;;;5035994;28;20293;-82
2024/01/04 06:38:17;;;;;;;0.70;0.65;;;;;;;;;;5035698;28;20672;-81
2024/01/04 06:40:44;;;;;;;0.57;0.57;;;;;;;;;;5035815;28;20206;-82
2024/01/04 06:43:13;;;;;;;1.33;0.70;;;;;;;;;;5035797;28;20598;-82
2024/01/04 06:45:41;;;;;;;1.95;0.60;;;;;;;;;;5035393;28;20206;-84
2024/01/04 06:48:09;;;;;;;0.50;0.50;;;;;;;;;;5032288;28;20659;-82
2024/01/04 06:50:37;;;;;;;0.38;0.38;;;;;;;;;;5035365;28;20256;-83
2024/01/04 06:53:05;;;;;;;0.65;0.65;;;;;;;;;;5036091;28;20201;-82
2024/01/04 06:55:32;;;;;;;1.05;0.60;;;;;;;;;;5035716;28;20654;-82
2024/01/04 06:58:00;;;;;;;0.45;0.45;;;;;;;;;;5038073;28;20222;-83
2024/01/04 07:00:29;;;;;;;0.90;0.90;;;;;;;;;;5036193;28;20292;-82
2024/01/04 07:02:56;;;;;;;0.63;0.63;;;;;;;;;;5036581;28;20226;-81
2024/01/04 07:05:24;;;;;;;0.73;0.73;;;;;;;;;;5035857;28;20228;-82
2024/01/04 07:07:51;;;;;;;0.60;0.60;;;;;;;;;;5035912;28;20222;-82
2024/01/04 07:10:19;;;;;;;0.85;0.80;;;;;;;;;;5035795;28;20293;-82
2024/01/04 07:12:46;;;;;;;0.68;0.68;;;;;;;;;;5035574;28;20234;-82
2024/01/04 07:15:14;;;;;;;0.70;0.70;;;;;;;;;;5035291;28;20211;-83
2024/01/04 07:17:43;;;;;;;0.47;0.47;;;;;;;;;;5034798;28;20225;-82
2024/01/04 07:20:12;;;;;;;0.50;0.50;;;;;;;;;;5023114;28;20248;-83
2024/01/04 07:22:39;;;;;;;0.68;0.68;;;;;;;;;;5034630;28;20318;-83
2024/01/04 07:25:08;;;;;;;0.98;0.90;;;;;;;;;;5035299;28;20325;-83
2024/01/04 07:27:35;;;;;;;0.77;0.77;;;;;;;;;;5036323;28;20236;-82
2024/01/04 07:30:03;;;;;;;0.90;0.90;;;;;;;;;;5043751;28;20216;-82
2024/01/04 07:32:31;;;;;;;0.75;0.75;;;;;;;;;;5032760;28;20593;-83
2024/01/04 07:34:59;;;;;;;0.80;0.80;;;;;;;;;;5035978;28;20221;-83
2024/01/04 07:37:27;;;;;;;0.93;0.90;;;;;;;;;;5035148;28;20233;-82
2024/01/04 07:39:54;;;;;;;2.05;1.00;;;;;;;;;;5035301;28;20210;-82
2024/01/04 07:42:22;;;;;;;0.73;0.73;;;;;;;;;;5035260;28;20301;-83
2024/01/04 07:44:50;;;;;;;1.10;1.08;;;;;;;;;;5035768;28;20241;-81
2024/01/04 07:47:17;;;;;;;1.55;0.88;;;;;;;;;;5035415;28;20282;-83
2024/01/04 07:49:45;;;;;;;1.75;0.90;;;;;;;;;;5035522;28;20213;-82
2024/01/04 07:52:14;;;;;;;0.98;0.70;;;;;;;;;;5035776;28;20305;-83
2024/01/04 07:54:41;;;;;;;0.70;0.70;;;;;;;;;;5035461;28;20214;-83
2024/01/04 07:57:09;;;;;;;0.73;0.73;;;;;;;;;;5030727;28;20226;-82
2024/01/04 07:59:37;;;;;;;0.60;0.60;;;;;;;;;;5038115;28;20556;-82
2024/01/04 08:02:04;;;;;;;2.35;0.80;;;;;;;;;;5036318;28;20241;-84
2024/01/04 08:04:33;;;;;;;0.75;0.75;;;;;;;;;;5038838;28;20230;-82
2024/01/04 08:07:00;;;;;;;0.98;0.70;;;;;;;;;;5039058;28;20742;-83
2024/01/04 08:09:29;;;;;;;0.55;0.55;;;;;;;;;;5038979;28;20210;-83
2024/01/04 08:11:57;;;;;;;0.60;0.60;;;;;;;;;;5039399;28;20207;-82
2024/01/04 08:14:24;;;;;;;0.70;0.70;;;;;;;;;;5038050;28;20206;-83
2024/01/04 08:16:52;;;;;;;0.77;0.70;;;;;;;;;;5037940;28;20250;-84
2024/01/04 08:19:19;;;;;;;0.75;0.75;;;;;;;;;;5038978;28;20287;-83
2024/01/04 08:21:46;;;;;;;0.57;0.57;;;;;;;;;;5038722;28;20208;-83
2024/01/04 08:24:14;;;;;;;0.80;0.80;;;;;;;;;;5039962;28;20317;-82
2024/01/04 08:26:43;;;;;;;0.63;0.63;;;;;;;;;;5038909;28;20254;-82
2024/01/04 08:29:11;;;;;;;0.60;0.60;;;;;;;;;;5039882;28;20649;-82
2024/01/04 08:31:38;;;;;;;0.75;0.52;;;;;;;;;;5035154;28;20738;-83
2024/01/04 08:34:06;;;;;;;0.75;0.75;;;;;;;;;;5044814;28;20628;-83
2024/01/04 08:36:33;;;;;;;0.60;0.60;;;;;;;;;;5038959;28;20226;-83
2024/01/04 08:39:01;;;;;;;0.70;0.70;;;;;;;;;;5039328;28;20738;-81
2024/01/04 08:41:28;;;;;;;0.75;0.75;;;;;;;;;;5039250;28;20264;-83
2024/01/04 08:43:57;;;;;;;0.60;0.60;;;;;;;;;;5038941;28;20229;-82
2024/01/04 08:46:25;;;;;;;0.90;0.90;;;;;;;;;;5038337;28;20407;-83
2024/01/04 08:48:52;;;;;;;0.77;0.77;;;;;;;;;;5039321;28;20305;-83
2024/01/04 08:51:19;;;;;;;0.75;0.60;;;;;;;;;;5038637;28;20679;-83
2024/01/04 08:53:49;;;;;;;0.80;0.80;;;;;;;;;;5038745;28;20270;-83
2024/01/04 08:56:16;;;;;;;0.95;0.60;;;;;;;;;;5039528;28;20657;-83
2024/01/04 08:58:44;;;;;;;0.50;0.50;;;;;;;;;;5038428;28;20273;-83
2024/01/04 09:01:13;;;;;;;0.43;0.43;;;;;;;;;;5039140;28;20210;-83
2024/01/04 09:03:40;;;;;;;0.65;0.65;;;;;;;;;;5038893;28;20230;-83
2024/01/04 09:06:08;;;;;;;1.05;0.60;;;;;;;;;;5038912;28;20213;-81
2024/01/04 09:08:36;;;;;;;0.50;0.50;;;;;;;;;;5037796;28;20210;-82
2024/01/04 09:11:04;;;;;;;0.60;0.60;;;;;;;;;;5037813;28;20217;-83
2024/01/04 09:13:31;;;;;;;1.63;0.70;;;;;;;;;;5037079;28;20210;-81
2024/01/04 09:15:59;;;;;;;0.63;0.63;;;;;;;;;;5037745;28;20207;-84
2024/01/04 09:18:27;;;;;;;0.60;0.60;;;;;;;;;;5038481;28;20212;-82
2024/01/04 09:20:55;;;;;;;0.47;0.47;;;;;;;;;;5038326;28;20210;-82
2024/01/04 09:23:22;;;;;;;0.65;0.65;;;;;;;;;;5038343;28;20220;-82
2024/01/04 09:25:50;;;;;;;0.57;0.57;;;;;;;;;;5038690;28;20301;-82
2024/01/04 09:28:18;;;;;;;0.50;0.50;;;;;;;;;;5044684;28;20608;-82
2024/01/04 09:30:46;;;;;;;0.73;0.73;;;;;;;;;;5050291;28;20264;-83
2024/01/04 09:33:15;;;;;;;0.50;0.50;;;;;;;;;;5038686;28;20834;-82
2024/01/04 09:35:44;;;;;;;0.57;0.57;;;;;;;;;;5038601;28;20209;-82
2024/01/04 09:38:11;;;;;;;0.50;0.50;;;;;;;;;;5033523;28;20236;-82
2024/01/04 09:40:39;;;;;;;1.08;1.00;;;;;;;;;;5038053;28;20293;-82
2024/01/04 09:43:06;;;;;;;0.50;0.50;;;;;;;;;;5039007;28;20206;-81
2024/01/04 09:45:34;;;;;;;0.85;0.80;;;;;;;;;;5037648;28;20690;-83
2024/01/04 09:48:02;;;;;;;0.80;0.80;;;;;;;;;;5038384;28;20226;-82
2024/01/04 09:50:31;;;;;;;0.60;0.60;;;;;;;;;;5037793;28;20305;-81
2024/01/04 09:53:00;;;;;;;0.50;0.50;;;;;;;;;;5038595;28;20240;-82
2024/01/04 09:55:27;;;;;;;0.60;0.60;;;;;;;;;;5037225;28;20206;-82
2024/01/04 09:57:56;;;;;;;0.45;0.45;;;;;;;;;;5037414;28;20257;-82
2024/01/04 10:00:23;;;;;;;0.50;0.50;;;;;;;;;;5038482;28;20250;-82
2024/01/04 10:02:51;;;;;;;0.68;0.68;;;;;;;;;;5036565;28;20648;-81
2024/01/04 10:05:19;;;;;;;1.02;0.70;;;;;;;;;;5037508;28;20321;-82
2024/01/04 10:08:01;;;;;;;0.60;0.60;;;;;;;;;;5037441;28;20226;-82
2024/01/04 10:10:34;;;;;;;0.30;0.30;;;;;;;;;;5037650;28;20205;-83
2024/01/04 10:13:04;;;;;;;0.43;0.43;;;;;;;;;;5037655;28;20202;-84
2024/01/04 10:15:31;;;;;;;0.50;0.50;;;;;;;;;;5037962;28;20261;-84
2024/01/04 10:17:59;;;;;;;0.47;0.47;;;;;;;;;;5036799;28;20694;-82
2024/01/04 10:20:27;;;;;;;0.40;0.40;;;;;;;;;;5037332;28;20651;-83
2024/01/04 10:22:55;;;;;;;0.40;0.40;;;;;;;;;;5037396;28;20615;-84
2024/01/04 10:25:24;;;;;;;0.57;0.57;;;;;;;;;;5037207;28;20233;-83
2024/01/04 10:27:58;;;;;;;0.50;0.50;;;;;;;;;;5038884;28;20229;-83
2024/01/04 10:30:26;;;;;;;0.57;0.57;;;;;;;;;;5036940;28;20209;-82
2024/01/04 10:32:54;;;;;;;0.50;0.50;;;;;;;;;;5042168;28;20214;-83
2024/01/04 10:35:27;;;;;;;0.50;0.50;;;;;;;;;;5036855;28;20293;-84
2024/01/04 10:38:00;;;;;;;0.40;0.40;;;;;;;;;;5029626;28;20613;-83
2024/01/04 10:40:29;;;;;;;0.68;0.68;;;;;;;;;;5036889;28;20705;-83
2024/01/04 10:42:56;;;;;;;0.47;0.47;;;;;;;;;;5036320;28;20237;-83
2024/01/04 10:45:29;;;;;;;0.40;0.40;;;;;;;;;;5036842;28;20313;-84
2024/01/04 10:47:57;;;;;;;0.30;0.30;;;;;;;;;;5036297;28;20264;-84
2024/01/04 10:50:25;;;;;;;0.57;0.57;;;;;;;;;;5036043;28;20210;-84
2024/01/04 10:52:55;;;;;;;0.45;0.45;;;;;;;;;;5036331;28;20218;-83
2024/01/04 10:55:23;;;;;;;0.45;0.45;;;;;;;;;;5036962;28;20198;-83
2024/01/04 10:57:52;;;;;;;0.50;0.50;;;;;;;;;;5035954;28;20611;-84
2024/01/04 11:00:20;;;;;;;0.50;0.50;;;;;;;;;;5035752;28;20289;-82
2024/01/04 11:02:49;;;;;;;0.70;0.70;;;;;;;;;;5036373;28;20240;-82
2024/01/04 11:05:17;;;;;;;0.50;0.50;;;;;;;;;;5036483;28;20238;-83
2024/01/04 11:07:45;;;;;;;0.60;0.60;;;;;;;;;;5035556;28;20222;-83
2024/01/04 11:10:13;;;;;;;0.70;0.70;;;;;;;;;;5036055;28;20302;-83
2024/01/04 11:12:42;;;;;;;0.50;0.50;;;;;;;;;;5036098;28;20217;-83
2024/01/04 11:15:14;;;;;;;0.57;0.57;;;;;;;;;;5035379;28;20294;-82
2024/01/04 11:18:04;;;;;;;0.60;0.60;;;;;;;;;;5035847;28;20260;-84
2024/01/04 11:20:48;;;;;;;0.75;0.75;;;;;;;;;;5034224;28;20285;-84
2024/01/04 11:23:32;;;;;;;1.00;1.00;;;;;;;;;;5036209;28;20386;-83
2024/01/04 11:26:23;;;;;;;0.70;0.70;;;;;;;;;;5034693;28;20221;-84
2024/01/04 11:28:51;;;;;;;2.50;1.23;;;;;;;;;;5037060;28;20202;-83
2024/01/04 11:31:24;;;;;;;0.80;0.80;;;;;;;;;;5031700;28;20211;-83
2024/01/04 11:33:52;;;;;;;0.90;0.90;;;;;;;;;;5029162;28;20209;-83
2024/01/04 11:36:21;;;;;;;1.30;1.20;;;;;;;;;;5036889;28;20374;-82
2024/01/04 11:38:49;;;;;;;0.95;0.68;;;;;;;;;;5039455;28;20220;-83
2024/01/04 11:41:17;;;;;;;0.63;0.63;;;;;;;;;;5039526;28;20206;-83
2024/01/04 11:43:45;;;;;;;0.70;0.70;;;;;;;;;;5039037;28;20268;-84
2024/01/04 11:46:26;;;;;;;0.47;0.47;;;;;;;;;;5039946;28;20261;-82
2024/01/04 11:48:55;;;;;;;1.15;1.13;;;;;;;;;;5040140;28;20217;-83
2024/01/04 11:51:33;;;;;;;1.52;1.40;;;;;;;;;;5039489;28;20297;-83
2024/01/04 11:54:03;;;;;;;0.65;0.65;;;;;;;;;;5040085;28;20255;-81
2024/01/04 11:56:30;;;;;;;1.48;1.38;;;;;;;;;;5039625;28;20227;-81
2024/01/04 11:59:08;;;;;;;0.80;0.80;;;;;;;;;;5040173;28;20218;-81
2024/01/04 12:01:39;;;;;;;0.52;0.52;;;;;;;;;;5040093;28;20210;-82
2024/01/04 12:04:12;;;;;;;0.50;0.50;;;;;;;;;;5039664;28;20207;-82
2024/01/04 12:06:41;;;;;;;0.68;0.68;;;;;;;;;;5039522;28;20257;-83
2024/01/04 12:09:09;;;;;;;0.65;0.65;;;;;;;;;;5039916;28;20656;-82
2024/01/04 12:11:37;;;;;;;0.40;0.40;;;;;;;;;;5040142;28;20301;-82
2024/01/04 12:14:05;;;;;;;0.57;0.57;;;;;;;;;;5039509;28;20719;-83
2024/01/04 12:16:33;;;;;;;0.50;0.50;;;;;;;;;;5040020;28;20230;-82
2024/01/04 12:19:02;;;;;;;0.60;0.60;;;;;;;;;;5039784;28;20270;-82
2024/01/04 12:21:30;;;;;;;0.50;0.50;;;;;;;;;;5040479;28;20198;-83
2024/01/04 12:23:58;;;;;;;0.60;0.60;;;;;;;;;;5038825;28;20207;-83
2024/01/04 12:26:26;;;;;;;0.70;0.70;;;;;;;;;;5039980;28;20266;-82
2024/01/04 12:28:55;;;;;;;0.60;0.60;;;;;;;;;;5040310;28;20217;-83
2024/01/04 12:31:24;;;;;;;0.70;0.70;;;;;;;;;;5040068;28;20321;-83
2024/01/04 12:33:55;;;;;;;0.50;0.50;;;;;;;;;;5038581;28;20667;-83
2024/01/04 12:36:24;;;;;;;0.55;0.47;;;;;;;;;;5037717;28;20261;-83
2024/01/04 12:38:53;;;;;;;0.40;0.40;;;;;;;;;;5039555;28;20206;-82
2024/01/04 12:41:27;;;;;;;0.77;0.52;;;;;;;;;;5040157;28;20594;-83
2024/01/04 12:43:54;;;;;;;0.55;0.55;;;;;;;;;;5037997;28;20214;-83
2024/01/04 12:46:23;;;;;;;0.60;0.60;;;;;;;;;;5039734;28;20307;-83
2024/01/04 12:48:51;;;;;;;0.38;0.38;;;;;;;;;;5038996;28;20216;-83
2024/01/04 12:51:28;;;;;;;0.47;0.47;;;;;;;;;;5039635;28;20217;-83
2024/01/04 12:53:55;;;;;;;0.60;0.60;;;;;;;;;;5037397;28;20671;-83
2024/01/04 12:56:23;;;;;;;0.40;0.40;;;;;;;;;;5038764;28;20254;-83
2024/01/04 12:58:50;;;;;;;0.68;0.68;;;;;;;;;;5038539;28;20218;-82
2024/01/04 13:01:18;;;;;;;0.70;0.70;;;;;;;;;;5038025;28;20297;-83
2024/01/04 13:03:46;;;;;;;0.55;0.55;;;;;;;;;;5038383;28;20785;-83
2024/01/04 13:06:13;;;;;;;0.85;0.85;;;;;;;;;;5037885;28;20261;-83
2024/01/04 13:08:43;;;;;;;2.40;1.20;;;;;;;;;;5037973;28;20298;-83
2024/01/04 13:11:10;;;;;;;0.60;0.60;;;;;;;;;;5038938;28;20709;-83
2024/01/04 13:13:38;;;;;;;2.05;1.77;;;;;;;;;;5037991;28;20286;-83
2024/01/04 13:16:06;;;;;;;1.77;1.67;;;;;;;;;;5037359;28;20671;-82
2024/01/04 13:18:34;;;;;;;1.45;1.35;;;;;;;;;;5037674;28;20211;-83
2024/01/04 13:21:02;;;;;;;1.02;1.02;;;;;;;;;;5038701;28;20297;-83
2024/01/04 13:23:30;;;;;;;1.00;1.00;;;;;;;;;;5037856;28;20214;-82
2024/01/04 13:25:59;;;;;;;3.58;3.20;;;;;;;;;;5037653;28;20226;-82
2024/01/04 13:28:26;;;;;;;1.83;1.63;;;;;;;;;;5040127;28;20285;-83
2024/01/04 13:30:54;;;;;;;1.33;1.23;;;;;;;;;;5038054;28;20278;-83
2024/01/04 13:33:22;;;;;;;0.90;0.90;;;;;;;;;;5037699;28;20202;-83
2024/01/04 13:35:49;;;;;;;10.10;1.20;;;;;;;;;;5038371;28;20214;-82
2024/01/04 13:38:17;;;;;;;0.77;0.77;;;;;;;;;;5038475;28;20316;-83
2024/01/04 13:40:45;;;;;;;1.17;1.15;;;;;;;;;;5038866;28;20206;-83
2024/01/04 13:43:14;;;;;;;1.00;0.90;;;;;;;;;;5039159;28;20647;-82
2024/01/04 13:45:42;;;;;;;0.93;0.80;;;;;;;;;;5039150;28;20546;-84
2024/01/04 13:48:10;;;;;;;2.17;0.93;;;;;;;;;;5039374;28;20222;-83
2024/01/04 13:50:37;;;;;;;1.00;1.00;;;;;;;;;;5038199;28;20240;-82
2024/01/04 13:53:09;;;;;;;0.80;0.80;;;;;;;;;;5038289;28;20686;-82
2024/01/04 13:55:36;;;;;;;1.00;1.00;;;;;;;;;;5039221;28;20206;-82
2024/01/04 13:58:05;;;;;;;0.95;0.95;;;;;;;;;;5038704;28;20225;-84
2024/01/04 14:00:34;;;;;;;0.70;0.70;;;;;;;;;;5048804;28;20219;-81
2024/01/04 14:03:02;;;;;;;0.80;0.80;;;;;;;;;;5044656;28;20207;-84
2024/01/04 14:05:30;;;;;;;1.10;1.10;;;;;;;;;;5038695;28;20232;-83
2024/01/04 14:07:57;;;;;;;1.00;1.00;;;;;;;;;;5037052;28;20234;-82
2024/01/04 14:10:24;;;;;;;0.90;0.90;;;;;;;;;;5037081;28;20293;-83
2024/01/04 14:12:52;;;;;;;1.00;1.00;;;;;;;;;;5037603;28;20305;-82
2024/01/04 14:15:22;;;;;;;0.90;0.90;;;;;;;;;;5042105;28;20278;-83
2024/01/04 14:17:52;;;;;;;0.98;0.88;;;;;;;;;;5038649;28;20690;-82
2024/01/04 14:20:22;;;;;;;0.70;0.70;;;;;;;;;;5039069;28;20717;-82
2024/01/04 14:22:51;;;;;;;0.77;0.77;;;;;;;;;;5037171;28;20252;-82
2024/01/04 14:25:18;;;;;;;0.70;0.70;;;;;;;;;;5036600;28;20298;-83
2024/01/04 14:27:46;;;;;;;0.50;0.50;;;;;;;;;;5038041;28;20313;-83
2024/01/04 14:30:14;;;;;;;0.70;0.70;;;;;;;;;;5038046;28;20525;-83
2024/01/04 14:32:42;;;;;;;0.80;0.80;;;;;;;;;;5037810;28;20643;-83
2024/01/04 14:35:10;;;;;;;0.70;0.70;;;;;;;;;;5037749;28;20817;-83
2024/01/04 14:37:39;;;;;;;0.85;0.85;;;;;;;;;;5038103;28;20281;-83
2024/01/04 14:40:07;;;;;;;0.80;0.80;;;;;;;;;;5038622;28;20212;-83
2024/01/04 14:42:35;;;;;;;0.95;0.95;;;;;;;;;;5036998;28;20266;-83
2024/01/04 14:45:02;;;;;;;1.02;1.02;;;;;;;;;;5037127;28;20551;-82
2024/01/04 14:47:30;;;;;;;1.70;1.60;;;;;;;;;;5037176;28;20325;-82
2024/01/04 14:49:57;;;;;;;2.00;1.80;;;;;;;;;;5037089;28;20213;-82